Macon, Missouri
Current Conditions -  °F | °C
As of 8:02 PM on Sunday 21 Dec 2014 (Local Time) from KIRK Reporting Station
Haze Haze  
Wind Chill: 33°   Ceiling: 1400
Heat Index: 41°   Visibility: 6mi
Dew Point: 40°   Wind: 14mph
Humidity: 96%   Direction: 150°SSE
Pressure: 29.87"   Gusts: NA
Location:  39.74°N, 92.46°W
Report Text: KIRK 220202Z AUTO 15012KT 6SM BR SCT009 BKN014 OVC022 05/04 A2987 RMK AO2 T00500044
Loading
Personal Weather Stations






























Interactive Weather Map New forecast layout! Learn more

10-Day Weather Forecast

Advertisements
Track Severe Weather on mobile